sensor_id;sensor_type;location;lat;lon;timestamp;pressure;altitude;pressure_sealevel;temperature;humidity
44265;BME280;29954;50.828;4.922;2022-07-06T00:01:54;101380.22;;;18.21;60.21
44265;BME280;29954;50.828;4.922;2022-07-06T00:04:21;101371.22;;;18.24;60.13
44265;BME280;29954;50.828;4.922;2022-07-06T00:06:47;101372.22;;;18.19;60.06
44265;BME280;29954;50.828;4.922;2022-07-06T00:09:14;101391.94;;;17.97;60.73
44265;BME280;29954;50.828;4.922;2022-07-06T00:11:41;101385.31;;;18.10;60.44
44265;BME280;29954;50.828;4.922;2022-07-06T00:14:07;101394.38;;;17.90;60.84
44265;BME280;29954;50.828;4.922;2022-07-06T00:16:34;101398.72;;;17.61;61.22
44265;BME280;29954;50.828;4.922;2022-07-06T00:19:00;101409.88;;;17.36;61.60
44265;BME280;29954;50.828;4.922;2022-07-06T00:21:27;101419.97;;;17.40;61.91
44265;BME280;29954;50.828;4.922;2022-07-06T00:23:53;101418.97;;;17.45;61.58
44265;BME280;29954;50.828;4.922;2022-07-06T00:26:20;101416.81;;;17.59;61.39
44265;BME280;29954;50.828;4.922;2022-07-06T00:28:46;101445.91;;;17.36;62.46
44265;BME280;29954;50.828;4.922;2022-07-06T00:31:13;101439.16;;;17.54;62.03
44265;BME280;29954;50.828;4.922;2022-07-06T00:33:39;101431.34;;;17.47;62.11
44265;BME280;29954;50.828;4.922;2022-07-06T00:36:06;101429.94;;;17.33;62.37
44265;BME280;29954;50.828;4.922;2022-07-06T00:38:32;101428.06;;;17.54;62.21
44265;BME280;29954;50.828;4.922;2022-07-06T00:40:58;101438.84;;;17.55;62.20
44265;BME280;29954;50.828;4.922;2022-07-06T00:43:25;101445.88;;;17.44;62.60
44265;BME280;29954;50.828;4.922;2022-07-06T00:45:51;101456.50;;;17.16;62.99
44265;BME280;29954;50.828;4.922;2022-07-06T00:48:18;101477.19;;;17.19;63.41
44265;BME280;29954;50.828;4.922;2022-07-06T00:50:45;101467.56;;;17.42;62.70
44265;BME280;29954;50.828;4.922;2022-07-06T00:53:11;101455.50;;;17.38;62.73
44265;BME280;29954;50.828;4.922;2022-07-06T00:55:39;101462.84;;;17.51;62.85
44265;BME280;29954;50.828;4.922;2022-07-06T00:58:06;101469.31;;;17.55;62.74
44265;BME280;29954;50.828;4.922;2022-07-06T01:00:33;101469.69;;;17.19;63.51
44265;BME280;29954;50.828;4.922;2022-07-06T01:03:00;101500.50;;;17.35;63.85
44265;BME280;29954;50.828;4.922;2022-07-06T01:05:28;101481.25;;;17.39;63.59
44265;BME280;29954;50.828;4.922;2022-07-06T01:07:55;101471.63;;;17.53;63.12
44265;BME280;29954;50.828;4.922;2022-07-06T01:10:22;101453.19;;;17.57;62.72
44265;BME280;29954;50.828;4.922;2022-07-06T01:12:49;101463.31;;;17.45;63.33
44265;BME280;29954;50.828;4.922;2022-07-06T01:15:18;101479.13;;;17.53;63.54
44265;BME280;29954;50.828;4.922;2022-07-06T01:17:45;101469.00;;;17.57;63.25
44265;BME280;29954;50.828;4.922;2022-07-06T01:20:13;101465.94;;;17.41;63.54
44265;BME280;29954;50.828;4.922;2022-07-06T01:22:40;101471.50;;;17.33;63.82
44265;BME280;29954;50.828;4.922;2022-07-06T01:25:06;101472.31;;;17.16;64.14
44265;BME280;29954;50.828;4.922;2022-07-06T01:27:34;101488.63;;;17.09;64.23
44265;BME280;29954;50.828;4.922;2022-07-06T01:30:04;101485.00;;;16.91;64.58
44265;BME280;29954;50.828;4.922;2022-07-06T01:32:30;101469.19;;;17.00;64.09
44265;BME280;29954;50.828;4.922;2022-07-06T01:34:57;101478.00;;;16.94;64.22
44265;BME280;29954;50.828;4.922;2022-07-06T01:37:23;101474.09;;;17.03;63.93
44265;BME280;29954;50.828;4.922;2022-07-06T01:39:50;101472.78;;;16.92;64.19
44265;BME280;29954;50.828;4.922;2022-07-06T01:42:16;101471.50;;;16.90;64.08
44265;BME280;29954;50.828;4.922;2022-07-06T01:44:43;101490.19;;;16.84;64.59
44265;BME280;29954;50.828;4.922;2022-07-06T01:47:11;101490.19;;;16.84;64.68
44265;BME280;29954;50.828;4.922;2022-07-06T01:49:37;101497.22;;;16.81;64.80
44265;BME280;29954;50.828;4.922;2022-07-06T01:52:03;101479.91;;;16.67;64.78
44265;BME280;29954;50.828;4.922;2022-07-06T01:54:30;101494.28;;;16.78;65.01
44265;BME280;29954;50.828;4.922;2022-07-06T01:56:56;101499.63;;;16.83;65.02
44265;BME280;29954;50.828;4.922;2022-07-06T01:59:23;101544.00;;;16.52;66.40
44265;BME280;29954;50.828;4.922;2022-07-06T02:01:49;101539.38;;;16.70;66.14
44265;BME280;29954;50.828;4.922;2022-07-06T02:04:16;101516.44;;;16.86;65.53
44265;BME280;29954;50.828;4.922;2022-07-06T02:06:42;101513.16;;;16.84;65.79
44265;BME280;29954;50.828;4.922;2022-07-06T02:09:08;101532.88;;;16.83;66.18
44265;BME280;29954;50.828;4.922;2022-07-06T02:11:35;101540.34;;;16.82;66.55
44265;BME280;29954;50.828;4.922;2022-07-06T02:14:01;101526.69;;;16.86;66.40
44265;BME280;29954;50.828;4.922;2022-07-06T02:16:28;101523.09;;;16.85;66.54
44265;BME280;29954;50.828;4.922;2022-07-06T02:18:54;101525.88;;;16.85;66.47
44265;BME280;29954;50.828;4.922;2022-07-06T02:21:21;101517.88;;;16.75;66.72
44265;BME280;29954;50.828;4.922;2022-07-06T02:23:47;101531.25;;;16.82;67.01
44265;BME280;29954;50.828;4.922;2022-07-06T02:26:14;101516.56;;;16.73;67.03
44265;BME280;29954;50.828;4.922;2022-07-06T02:28:40;101524.06;;;16.72;67.23
44265;BME280;29954;50.828;4.922;2022-07-06T02:31:07;101518.19;;;16.82;67.00
44265;BME280;29954;50.828;4.922;2022-07-06T02:33:33;101513.16;;;16.84;66.90
44265;BME280;29954;50.828;4.922;2022-07-06T02:35:59;101496.25;;;16.95;66.47
44265;BME280;29954;50.828;4.922;2022-07-06T02:38:26;101488.09;;;16.90;66.18
44265;BME280;29954;50.828;4.922;2022-07-06T02:40:52;101488.56;;;16.92;66.21
44265;BME280;29954;50.828;4.922;2022-07-06T02:43:19;101474.09;;;16.86;66.01
44265;BME280;29954;50.828;4.922;2022-07-06T02:45:45;101459.41;;;16.77;65.68
44265;BME280;29954;50.828;4.922;2022-07-06T02:48:12;101473.41;;;16.72;65.80
44265;BME280;29954;50.828;4.922;2022-07-06T02:50:38;101465.25;;;16.67;65.61
44265;BME280;29954;50.828;4.922;2022-07-06T02:53:05;101461.69;;;16.75;65.56
44265;BME280;29954;50.828;4.922;2022-07-06T02:55:31;101465.41;;;16.62;65.75
44265;BME280;29954;50.828;4.922;2022-07-06T02:57:58;101479.53;;;16.51;66.21
44265;BME280;29954;50.828;4.922;2022-07-06T03:00:24;101478.47;;;16.78;65.92
44265;BME280;29954;50.828;4.922;2022-07-06T03:02:51;101465.56;;;16.65;65.74
44265;BME280;29954;50.828;4.922;2022-07-06T03:05:17;101488.91;;;16.73;66.16
44265;BME280;29954;50.828;4.922;2022-07-06T03:07:44;101486.75;;;16.61;66.27
44265;BME280;29954;50.828;4.922;2022-07-06T03:10:10;101493.88;;;16.54;66.65
44265;BME280;29954;50.828;4.922;2022-07-06T03:12:37;101495.81;;;16.53;66.95
44265;BME280;29954;50.828;4.922;2022-07-06T03:15:03;101526.16;;;16.67;66.96
44265;BME280;29954;50.828;4.922;2022-07-06T03:17:30;101522.44;;;16.80;66.91
44265;BME280;29954;50.828;4.922;2022-07-06T03:19:56;101517.19;;;16.61;66.93
44265;BME280;29954;50.828;4.922;2022-07-06T03:22:23;101518.41;;;16.46;67.32
44265;BME280;29954;50.828;4.922;2022-07-06T03:24:49;101525.19;;;16.32;67.65
44265;BME280;29954;50.828;4.922;2022-07-06T03:27:16;101529.44;;;16.38;67.77
44265;BME280;29954;50.828;4.922;2022-07-06T03:29:42;101534.06;;;16.51;67.58
44265;BME280;29954;50.828;4.922;2022-07-06T03:32:08;101531.75;;;16.44;67.79
44265;BME280;29954;50.828;4.922;2022-07-06T03:34:35;101532.28;;;16.55;67.79
44265;BME280;29954;50.828;4.922;2022-07-06T03:37:02;101529.59;;;16.64;67.42
44265;BME280;29954;50.828;4.922;2022-07-06T03:39:28;101529.97;;;16.48;67.81
44265;BME280;29954;50.828;4.922;2022-07-06T03:41:55;101537.75;;;16.46;67.99
44265;BME280;29954;50.828;4.922;2022-07-06T03:44:21;101543.19;;;16.51;68.06
44265;BME280;29954;50.828;4.922;2022-07-06T03:46:47;101538.59;;;16.47;67.63
44265;BME280;29954;50.828;4.922;2022-07-06T03:49:14;101521.81;;;16.43;67.29
44265;BME280;29954;50.828;4.922;2022-07-06T03:51:40;101501.03;;;16.15;66.80
44265;BME280;29954;50.828;4.922;2022-07-06T03:54:07;101497.69;;;16.27;66.71
44265;BME280;29954;50.828;4.922;2022-07-06T03:56:33;101496.88;;;16.35;66.54
44265;BME280;29954;50.828;4.922;2022-07-06T03:59:00;101497.06;;;16.47;66.60
44265;BME280;29954;50.828;4.922;2022-07-06T04:01:27;101492.66;;;16.37;66.61
44265;BME280;29954;50.828;4.922;2022-07-06T04:03:54;101502.28;;;16.48;66.47
44265;BME280;29954;50.828;4.922;2022-07-06T04:06:20;101496.06;;;16.34;66.62
44265;BME280;29954;50.828;4.922;2022-07-06T04:08:47;101536.81;;;16.51;67.06
44265;BME280;29954;50.828;4.922;2022-07-06T04:11:13;101514.38;;;16.52;66.57
44265;BME280;29954;50.828;4.922;2022-07-06T04:13:40;101517.78;;;16.58;66.51
44265;BME280;29954;50.828;4.922;2022-07-06T04:16:06;101524.13;;;16.50;66.80
44265;BME280;29954;50.828;4.922;2022-07-06T04:18:33;101553.47;;;16.60;67.11
44265;BME280;29954;50.828;4.922;2022-07-06T04:20:59;101547.16;;;16.68;67.01
44265;BME280;29954;50.828;4.922;2022-07-06T04:23:27;101555.69;;;16.49;67.73
44265;BME280;29954;50.828;4.922;2022-07-06T04:25:53;101556.03;;;16.56;67.39
44265;BME280;29954;50.828;4.922;2022-07-06T04:28:20;101538.75;;;16.42;67.44
44265;BME280;29954;50.828;4.922;2022-07-06T04:30:46;101555.47;;;16.28;67.76
44265;BME280;29954;50.828;4.922;2022-07-06T04:33:13;101548.28;;;16.27;67.72
44265;BME280;29954;50.828;4.922;2022-07-06T04:35:39;101563.59;;;16.33;67.83
44265;BME280;29954;50.828;4.922;2022-07-06T04:38:06;101547.69;;;16.47;67.42
44265;BME280;29954;50.828;4.922;2022-07-06T04:40:32;101544.78;;;16.44;67.58
44265;BME280;29954;50.828;4.922;2022-07-06T04:42:59;101551.72;;;16.64;67.31
44265;BME280;29954;50.828;4.922;2022-07-06T04:45:51;101556.25;;;16.29;68.26
44265;BME280;29954;50.828;4.922;2022-07-06T04:48:17;101561.06;;;16.45;68.12
44265;BME280;29954;50.828;4.922;2022-07-06T04:50:44;101562.91;;;16.19;68.58
44265;BME280;29954;50.828;4.922;2022-07-06T04:53:10;101580.22;;;16.11;69.13
44265;BME280;29954;50.828;4.922;2022-07-06T04:55:37;101589.75;;;15.96;69.31
44265;BME280;29954;50.828;4.922;2022-07-06T04:58:03;101589.06;;;15.91;69.70
44265;BME280;29954;50.828;4.922;2022-07-06T05:00:30;101587.84;;;16.28;69.12
44265;BME280;29954;50.828;4.922;2022-07-06T05:02:56;101561.31;;;16.27;68.65
44265;BME280;29954;50.828;4.922;2022-07-06T05:05:24;101561.06;;;16.45;68.38
44265;BME280;29954;50.828;4.922;2022-07-06T05:07:55;101555.66;;;16.40;68.46
44265;BME280;29954;50.828;4.922;2022-07-06T05:10:21;101572.81;;;16.20;69.08
44265;BME280;29954;50.828;4.922;2022-07-06T05:12:48;101587.88;;;16.36;69.18
44265;BME280;29954;50.828;4.922;2022-07-06T05:15:14;101605.16;;;16.20;69.84
44265;BME280;29954;50.828;4.922;2022-07-06T05:17:41;101618.63;;;16.12;70.26
44265;BME280;29954;50.828;4.922;2022-07-06T05:20:07;101622.97;;;16.27;70.42
44265;BME280;29954;50.828;4.922;2022-07-06T05:22:34;101623.19;;;16.39;70.23
44265;BME280;29954;50.828;4.922;2022-07-06T05:25:04;101630.63;;;16.30;70.64
44265;BME280;29954;50.828;4.922;2022-07-06T05:27:30;101639.06;;;16.25;70.78
44265;BME280;29954;50.828;4.922;2022-07-06T05:29:57;101647.16;;;16.22;71.20
44265;BME280;29954;50.828;4.922;2022-07-06T05:32:23;101653.56;;;16.31;71.26
44265;BME280;29954;50.828;4.922;2022-07-06T05:34:50;101668.59;;;16.38;71.49
44265;BME280;29954;50.828;4.922;2022-07-06T05:37:17;101668.53;;;16.52;71.69
44265;BME280;29954;50.828;4.922;2022-07-06T05:39:43;101674.69;;;16.71;71.95
44265;BME280;29954;50.828;4.922;2022-07-06T05:42:11;101678.44;;;16.75;71.89
44265;BME280;29954;50.828;4.922;2022-07-06T05:44:37;101690.13;;;16.64;72.43
44265;BME280;29954;50.828;4.922;2022-07-06T05:47:04;101690.78;;;16.69;72.58
44265;BME280;29954;50.828;4.922;2022-07-06T05:50:03;101681.13;;;16.89;72.27
44265;BME280;29954;50.828;4.922;2022-07-06T05:52:39;101676.91;;;17.00;71.79
44265;BME280;29954;50.828;4.922;2022-07-06T05:55:06;101678.44;;;17.06;71.79
44265;BME280;29954;50.828;4.922;2022-07-06T05:57:32;101691.25;;;17.02;72.33
44265;BME280;29954;50.828;4.922;2022-07-06T05:59:59;101685.63;;;17.16;72.08
44265;BME280;29954;50.828;4.922;2022-07-06T06:02:25;101692.00;;;17.16;72.23
44265;BME280;29954;50.828;4.922;2022-07-06T06:04:52;101695.41;;;17.22;72.00
44265;BME280;29954;50.828;4.922;2022-07-06T06:07:19;101697.34;;;17.13;72.28
44265;BME280;29954;50.828;4.922;2022-07-06T06:09:46;101708.25;;;17.18;72.46
44265;BME280;29954;50.828;4.922;2022-07-06T06:12:12;101715.91;;;17.12;73.01
44265;BME280;29954;50.828;4.922;2022-07-06T06:14:38;101706.78;;;17.12;72.78
44265;BME280;29954;50.828;4.922;2022-07-06T06:17:05;101716.22;;;17.11;73.01
44265;BME280;29954;50.828;4.922;2022-07-06T06:19:35;101711.25;;;17.30;72.78
44265;BME280;29954;50.828;4.922;2022-07-06T06:22:02;101715.84;;;17.35;73.02
44265;BME280;29954;50.828;4.922;2022-07-06T06:24:29;101715.31;;;17.24;73.32
44265;BME280;29954;50.828;4.922;2022-07-06T06:26:55;101726.13;;;17.43;73.26
44265;BME280;29954;50.828;4.922;2022-07-06T06:29:22;101717.16;;;17.46;73.31
44265;BME280;29954;50.828;4.922;2022-07-06T06:31:48;101705.41;;;17.40;72.98
44265;BME280;29954;50.828;4.922;2022-07-06T06:34:16;101710.97;;;17.40;73.21
44265;BME280;29954;50.828;4.922;2022-07-06T06:36:42;101714.53;;;17.41;73.50
44265;BME280;29954;50.828;4.922;2022-07-06T06:39:08;101735.41;;;17.47;73.93
44265;BME280;29954;50.828;4.922;2022-07-06T06:41:35;101736.56;;;17.46;73.97
44265;BME280;29954;50.828;4.922;2022-07-06T06:44:01;101712.63;;;17.58;73.26
44265;BME280;29954;50.828;4.922;2022-07-06T06:46:28;101693.59;;;17.66;72.58
44265;BME280;29954;50.828;4.922;2022-07-06T06:48:54;101697.81;;;17.63;72.64
44265;BME280;29954;50.828;4.922;2022-07-06T06:51:21;101685.28;;;17.74;72.29
44265;BME280;29954;50.828;4.922;2022-07-06T06:53:47;101674.50;;;17.73;71.95
44265;BME280;29954;50.828;4.922;2022-07-06T06:56:14;101684.00;;;17.89;72.21
44265;BME280;29954;50.828;4.922;2022-07-06T06:58:40;101652.50;;;17.85;71.28
44265;BME280;29954;50.828;4.922;2022-07-06T07:01:27;101635.22;;;17.79;70.78
44265;BME280;29954;50.828;4.922;2022-07-06T07:03:54;101627.72;;;17.80;70.38
44265;BME280;29954;50.828;4.922;2022-07-06T07:06:21;101599.47;;;17.86;69.46
44265;BME280;29954;50.828;4.922;2022-07-06T07:08:48;101589.81;;;18.01;68.72
44265;BME280;29954;50.828;4.922;2022-07-06T07:11:14;101581.84;;;17.91;68.92
44265;BME280;29954;50.828;4.922;2022-07-06T07:13:41;101553.59;;;18.06;67.69
44265;BME280;29954;50.828;4.922;2022-07-06T07:16:07;101590.94;;;18.09;68.47
44265;BME280;29954;50.828;4.922;2022-07-06T07:18:34;101588.50;;;18.16;68.39
44265;BME280;29954;50.828;4.922;2022-07-06T07:21:00;101577.06;;;18.17;67.89
44265;BME280;29954;50.828;4.922;2022-07-06T07:23:28;101564.16;;;18.21;67.63
44265;BME280;29954;50.828;4.922;2022-07-06T07:25:54;101564.13;;;18.30;67.37
44265;BME280;29954;50.828;4.922;2022-07-06T07:28:21;101548.00;;;18.23;67.15
44265;BME280;29954;50.828;4.922;2022-07-06T07:30:48;101518.38;;;18.36;66.34
44265;BME280;29954;50.828;4.922;2022-07-06T07:33:14;101521.94;;;18.45;66.13
44265;BME280;29954;50.828;4.922;2022-07-06T07:35:41;101483.59;;;18.38;65.34
44265;BME280;29954;50.828;4.922;2022-07-06T07:38:07;101438.09;;;18.31;64.29
44265;BME280;29954;50.828;4.922;2022-07-06T07:40:33;101473.75;;;18.50;65.11
44265;BME280;29954;50.828;4.922;2022-07-06T07:43:01;101344.00;;;18.38;61.93
44265;BME280;29954;50.828;4.922;2022-07-06T07:45:28;101296.09;;;18.50;60.52
44265;BME280;29954;50.828;4.922;2022-07-06T07:47:54;101272.59;;;18.68;59.75
44265;BME280;29954;50.828;4.922;2022-07-06T07:50:21;101315.25;;;18.63;60.77
44265;BME280;29954;50.828;4.922;2022-07-06T07:52:48;101330.22;;;18.71;61.13
44265;BME280;29954;50.828;4.922;2022-07-06T07:55:14;101332.41;;;18.65;61.26
44265;BME280;29954;50.828;4.922;2022-07-06T07:58:02;101357.09;;;18.79;61.55
44265;BME280;29954;50.828;4.922;2022-07-06T08:00:28;101315.97;;;18.93;60.30
44265;BME280;29954;50.828;4.922;2022-07-06T08:02:55;101298.72;;;18.88;60.31
44265;BME280;29954;50.828;4.922;2022-07-06T08:05:21;101310.09;;;18.95;60.49
44265;BME280;29954;50.828;4.922;2022-07-06T08:07:48;101341.81;;;19.06;60.95
44265;BME280;29954;50.828;4.922;2022-07-06T08:10:14;101304.97;;;18.97;60.19
44265;BME280;29954;50.828;4.922;2022-07-06T08:12:41;101309.03;;;18.99;60.20
44265;BME280;29954;50.828;4.922;2022-07-06T08:15:11;101276.75;;;18.95;59.54
44265;BME280;29954;50.828;4.922;2022-07-06T08:17:37;101248.72;;;19.00;58.94
44265;BME280;29954;50.828;4.922;2022-07-06T08:20:06;101271.69;;;19.09;59.26
44265;BME280;29954;50.828;4.922;2022-07-06T08:22:34;101255.13;;;19.13;58.65
44265;BME280;29954;50.828;4.922;2022-07-06T08:25:01;101259.28;;;19.06;58.85
44265;BME280;29954;50.828;4.922;2022-07-06T08:27:28;101276.31;;;19.17;59.21
44265;BME280;29954;50.828;4.922;2022-07-06T08:29:55;101296.63;;;19.30;59.30
44265;BME280;29954;50.828;4.922;2022-07-06T08:32:21;101277.25;;;19.21;58.85
44265;BME280;29954;50.828;4.922;2022-07-06T08:35:08;101247.28;;;19.27;58.11
44265;BME280;29954;50.828;4.922;2022-07-06T08:37:35;101210.00;;;19.52;57.04
44265;BME280;29954;50.828;4.922;2022-07-06T08:40:01;101249.25;;;19.26;58.35
44265;BME280;29954;50.828;4.922;2022-07-06T08:42:31;101246.22;;;19.43;57.99
44265;BME280;29954;50.828;4.922;2022-07-06T08:44:59;101260.88;;;19.53;58.64
44265;BME280;29954;50.828;4.922;2022-07-06T08:47:26;101234.19;;;19.27;57.89
44265;BME280;29954;50.828;4.922;2022-07-06T08:49:53;101189.94;;;19.34;56.88
44265;BME280;29954;50.828;4.922;2022-07-06T08:52:20;101229.59;;;19.56;57.68
44265;BME280;29954;50.828;4.922;2022-07-06T08:54:47;101218.94;;;19.58;57.31
44265;BME280;29954;50.828;4.922;2022-07-06T08:57:13;101144.25;;;19.84;55.50
44265;BME280;29954;50.828;4.922;2022-07-06T08:59:40;101094.53;;;19.82;54.51
44265;BME280;29954;50.828;4.922;2022-07-06T09:02:07;101093.22;;;19.92;54.13
44265;BME280;29954;50.828;4.922;2022-07-06T09:04:35;101093.69;;;19.94;54.13
44265;BME280;29954;50.828;4.922;2022-07-06T09:07:02;101075.44;;;19.97;53.82
44265;BME280;29954;50.828;4.922;2022-07-06T09:09:29;101089.34;;;19.69;54.32
44265;BME280;29954;50.828;4.922;2022-07-06T09:11:59;101156.09;;;19.81;55.52
44265;BME280;29954;50.828;4.922;2022-07-06T09:14:29;101129.47;;;19.68;55.32
44265;BME280;29954;50.828;4.922;2022-07-06T09:17:03;101134.47;;;20.02;55.00
44265;BME280;29954;50.828;4.922;2022-07-06T09:19:30;101144.00;;;19.89;55.18
44265;BME280;29954;50.828;4.922;2022-07-06T09:21:57;101157.53;;;20.03;55.49
44265;BME280;29954;50.828;4.922;2022-07-06T09:24:23;101174.59;;;19.89;55.90
44265;BME280;29954;50.828;4.922;2022-07-06T09:26:50;101185.13;;;19.96;56.31
44265;BME280;29954;50.828;4.922;2022-07-06T09:29:17;101216.53;;;19.96;56.80
44265;BME280;29954;50.828;4.922;2022-07-06T09:32:01;101172.94;;;20.00;55.76
44265;BME280;29954;50.828;4.922;2022-07-06T09:34:41;101222.75;;;20.17;56.59
44265;BME280;29954;50.828;4.922;2022-07-06T09:37:08;101159.56;;;20.18;55.29
44265;BME280;29954;50.828;4.922;2022-07-06T09:39:35;101136.31;;;19.98;54.91
44265;BME280;29954;50.828;4.922;2022-07-06T09:42:02;101198.56;;;20.06;56.03
44265;BME280;29954;50.828;4.922;2022-07-06T09:44:33;101197.38;;;20.07;55.85
44265;BME280;29954;50.828;4.922;2022-07-06T09:47:01;101150.44;;;20.05;55.08
44265;BME280;29954;50.828;4.922;2022-07-06T09:49:28;101230.91;;;20.10;56.83
44265;BME280;29954;50.828;4.922;2022-07-06T09:52:01;101201.59;;;20.01;56.11
44265;BME280;29954;50.828;4.922;2022-07-06T09:54:27;101192.91;;;19.90;55.89
44265;BME280;29954;50.828;4.922;2022-07-06T09:56:54;101217.06;;;20.14;56.13
44265;BME280;29954;50.828;4.922;2022-07-06T09:59:22;101226.03;;;20.07;56.41
44265;BME280;29954;50.828;4.922;2022-07-06T10:01:53;101199.06;;;20.23;55.81
44265;BME280;29954;50.828;4.922;2022-07-06T10:04:20;101189.44;;;19.93;55.87
44265;BME280;29954;50.828;4.922;2022-07-06T10:06:47;101205.66;;;19.91;56.19
44265;BME280;29954;50.828;4.922;2022-07-06T10:09:14;101200.59;;;19.81;56.13
44265;BME280;29954;50.828;4.922;2022-07-06T10:11:44;101216.19;;;19.98;56.07
44265;BME280;29954;50.828;4.922;2022-07-06T10:14:15;101220.91;;;20.21;56.15
44265;BME280;29954;50.828;4.922;2022-07-06T10:16:42;101218.41;;;20.32;55.78
44265;BME280;29954;50.828;4.922;2022-07-06T10:19:09;101189.91;;;20.23;55.34
44265;BME280;29954;50.828;4.922;2022-07-06T10:21:36;101177.19;;;20.22;55.12
44265;BME280;29954;50.828;4.922;2022-07-06T10:24:04;101193.63;;;20.27;55.37
44265;BME280;29954;50.828;4.922;2022-07-06T10:26:31;101204.63;;;20.23;55.56
44265;BME280;29954;50.828;4.922;2022-07-06T10:28:58;101195.59;;;20.27;55.26
44265;BME280;29954;50.828;4.922;2022-07-06T10:31:25;101165.94;;;20.18;54.89
44265;BME280;29954;50.828;4.922;2022-07-06T10:33:52;101145.47;;;20.27;54.45
44265;BME280;29954;50.828;4.922;2022-07-06T10:36:19;101195.03;;;20.21;55.31
44265;BME280;29954;50.828;4.922;2022-07-06T10:38:47;101164.09;;;20.10;54.75
44265;BME280;29954;50.828;4.922;2022-07-06T10:41:14;101182.13;;;20.29;54.94
44265;BME280;29954;50.828;4.922;2022-07-06T10:43:41;101191.97;;;20.38;54.84
44265;BME280;29954;50.828;4.922;2022-07-06T10:46:09;101159.94;;;20.32;54.54
44265;BME280;29954;50.828;4.922;2022-07-06T10:48:38;101151.09;;;20.14;54.45
44265;BME280;29954;50.828;4.922;2022-07-06T10:51:05;101180.50;;;20.28;55.13
44265;BME280;29954;50.828;4.922;2022-07-06T10:53:34;101221.44;;;20.27;55.90
44265;BME280;29954;50.828;4.922;2022-07-06T10:56:05;101191.53;;;20.36;55.09
44265;BME280;29954;50.828;4.922;2022-07-06T11:01:01;101139.38;;;20.65;53.84
44265;BME280;29954;50.828;4.922;2022-07-06T11:03:42;101170.78;;;20.49;54.55
44265;BME280;29954;50.828;4.922;2022-07-06T11:06:16;101121.13;;;20.51;53.60
44265;BME280;29954;50.828;4.922;2022-07-06T11:13:48;101152.41;;;20.60;54.23
44265;BME280;29954;50.828;4.922;2022-07-06T11:16:16;101161.09;;;20.59;54.42
44265;BME280;29954;50.828;4.922;2022-07-06T11:18:50;101121.88;;;20.64;53.78
44265;BME280;29954;50.828;4.922;2022-07-06T11:21:32;101156.00;;;20.61;54.21
44265;BME280;29954;50.828;4.922;2022-07-06T11:23:59;101128.31;;;20.68;53.64
44265;BME280;29954;50.828;4.922;2022-07-06T11:26:25;101101.09;;;20.62;53.30
44265;BME280;29954;50.828;4.922;2022-07-06T11:28:53;101156.81;;;20.62;54.40
44265;BME280;29954;50.828;4.922;2022-07-06T11:31:19;101136.78;;;20.56;53.77
44265;BME280;29954;50.828;4.922;2022-07-06T11:33:46;101099.75;;;20.71;53.02
44265;BME280;29954;50.828;4.922;2022-07-06T11:38:43;101174.81;;;20.80;54.45
44265;BME280;29954;50.828;4.922;2022-07-06T11:41:09;101094.09;;;20.83;52.91
44265;BME280;29954;50.828;4.922;2022-07-06T11:43:38;101071.00;;;20.83;52.92
44265;BME280;29954;50.828;4.922;2022-07-06T11:46:21;101139.28;;;20.77;53.98
44265;BME280;29954;50.828;4.922;2022-07-06T11:48:48;101136.78;;;20.72;54.16
44265;BME280;29954;50.828;4.922;2022-07-06T11:51:15;101134.00;;;20.87;53.83
44265;BME280;29954;50.828;4.922;2022-07-06T11:53:46;101095.34;;;20.86;52.89
44265;BME280;29954;50.828;4.922;2022-07-06T11:56:20;101095.34;;;21.02;53.05
44265;BME280;29954;50.828;4.922;2022-07-06T11:58:57;101127.00;;;20.93;53.86
44265;BME280;29954;50.828;4.922;2022-07-06T12:01:24;101104.25;;;20.91;53.58
44265;BME280;29954;50.828;4.922;2022-07-06T12:03:51;101151.16;;;20.89;54.34
44265;BME280;29954;50.828;4.922;2022-07-06T12:06:18;101177.50;;;21.08;54.71
44265;BME280;29954;50.828;4.922;2022-07-06T12:08:46;101088.34;;;20.92;53.17
44265;BME280;29954;50.828;4.922;2022-07-06T12:11:17;101187.56;;;20.96;54.91
44265;BME280;29954;50.828;4.922;2022-07-06T12:13:44;101103.44;;;20.91;53.47
44265;BME280;29954;50.828;4.922;2022-07-06T12:16:11;101087.69;;;20.98;53.09
44265;BME280;29954;50.828;4.922;2022-07-06T12:18:38;101046.22;;;21.13;52.37
44265;BME280;29954;50.828;4.922;2022-07-06T12:21:09;101071.06;;;21.02;52.92
44265;BME280;29954;50.828;4.922;2022-07-06T12:23:39;101115.47;;;21.11;53.86
44265;BME280;29954;50.828;4.922;2022-07-06T12:26:06;101136.25;;;21.29;54.18
44265;BME280;29954;50.828;4.922;2022-07-06T12:28:33;101083.09;;;21.22;53.22
44265;BME280;29954;50.828;4.922;2022-07-06T12:31:00;101036.44;;;21.19;52.71
44265;BME280;29954;50.828;4.922;2022-07-06T12:33:28;101089.78;;;21.17;53.74
44265;BME280;29954;50.828;4.922;2022-07-06T12:35:55;101095.78;;;21.04;54.16
44265;BME280;29954;50.828;4.922;2022-07-06T12:38:25;101034.75;;;20.98;52.55
44265;BME280;29954;50.828;4.922;2022-07-06T12:40:52;101047.91;;;21.33;52.58
44265;BME280;29954;50.828;4.922;2022-07-06T12:43:38;101072.53;;;21.47;52.81
44265;BME280;29954;50.828;4.922;2022-07-06T12:48:50;101078.25;;;21.54;53.08
44265;BME280;29954;50.828;4.922;2022-07-06T12:51:17;101035.50;;;21.50;52.36
44265;BME280;29954;50.828;4.922;2022-07-06T12:53:43;101054.59;;;21.48;52.85
44265;BME280;29954;50.828;4.922;2022-07-06T12:56:13;101108.13;;;21.53;53.58
44265;BME280;29954;50.828;4.922;2022-07-06T12:58:54;101074.31;;;21.39;53.25
44265;BME280;29954;50.828;4.922;2022-07-06T13:01:20;101087.47;;;21.58;53.11
44265;BME280;29954;50.828;4.922;2022-07-06T13:03:47;101156.84;;;21.59;54.46
44265;BME280;29954;50.828;4.922;2022-07-06T13:06:13;101110.03;;;21.68;53.59